New Orleans, Louisiana
Traffic Map
Current Weather Conditions
New Orleans, Louisiana
Overcast
Overcast
10°
Feels Like: 10°
Wind Chill: 10° Ceiling: 500
Heat Index: 10° Visibility: 7mi
Dew Point: Wind: 8mph
Humidity: 82% Direction: 50° (NE)
Pressure: 30.09in Gusts: 16mph
Raw Report DataKVSH 200415Z AUTO 05007G14KT 010V070 7SM BKN005 BKN012 OVC044 10/07 A3009 RMK AO1 P0010
Traffic Incident Summary
Active as of:
Severity:
Category:
InformationThere was an issue retrieving the traffic information for this location. Please try a different location or try again shortly.
Advertisements
Track Severe Weather on mobile